createdAt,value
2017-12-01T00:01:08.560Z,54.45
2017-12-01T00:03:34.347Z,63.53
2017-12-01T00:06:00.148Z,69.03
2017-12-01T00:08:25.959Z,67.97
2017-12-01T00:10:51.751Z,65.60
2017-12-01T00:13:17.543Z,59.37
2017-12-01T00:15:43.345Z,56.67
2017-12-01T00:18:09.132Z,63.33
2017-12-01T00:20:34.950Z,67.47
2017-12-01T00:23:00.734Z,64.03
2017-12-01T00:25:26.542Z,70.67
2017-12-01T00:27:52.367Z,66.43
2017-12-01T00:30:18.163Z,68.17
2017-12-01T00:32:43.927Z,72.93
2017-12-01T00:35:09.737Z,66.00
2017-12-01T00:37:35.582Z,62.17
2017-12-01T00:40:01.375Z,67.80
2017-12-01T00:42:27.192Z,66.80
2017-12-01T00:44:52.987Z,66.77
2017-12-01T00:47:18.772Z,59.63
2017-12-01T00:49:44.933Z,61.73
2017-12-01T00:52:10.741Z,63.28
2017-12-01T00:54:36.546Z,64.03
2017-12-01T00:57:02.357Z,66.80
2017-12-01T00:59:28.219Z,63.00
2017-12-01T01:01:54.415Z,64.90
2017-12-01T01:04:20.320Z,63.03
2017-12-01T01:06:46.162Z,59.10
2017-12-01T01:09:11.960Z,62.47
2017-12-01T01:11:37.767Z,58.77
2017-12-01T01:14:03.588Z,65.20
2017-12-01T01:16:29.374Z,65.80
2017-12-01T01:18:55.154Z,54.53
2017-12-01T01:21:21.307Z,52.80
2017-12-01T01:23:47.110Z,59.50
2017-12-01T01:26:12.899Z,64.37
2017-12-01T01:28:38.695Z,66.27
2017-12-01T01:31:04.490Z,59.07
2017-12-01T01:33:30.291Z,61.00
2017-12-01T01:35:56.089Z,69.93
2017-12-01T01:38:21.871Z,70.50
2017-12-01T01:40:47.662Z,66.00
2017-12-01T01:43:13.718Z,76.57
2017-12-01T01:45:39.499Z,74.47
2017-12-01T01:48:05.278Z,67.87
2017-12-01T01:50:31.088Z,71.97
2017-12-01T01:52:56.879Z,70.77
2017-12-01T01:55:22.715Z,77.43
2017-12-01T01:57:48.515Z,71.37
2017-12-01T02:00:14.330Z,71.83
2017-12-01T02:02:40.168Z,71.93
2017-12-01T02:05:05.978Z,64.20
2017-12-01T02:07:31.766Z,75.27
2017-12-01T02:09:57.606Z,75.03
2017-12-01T02:12:23.403Z,64.07
2017-12-01T02:14:49.196Z,64.93
2017-12-01T02:17:15.333Z,63.27
2017-12-01T02:19:41.151Z,68.62
2017-12-01T02:22:06.952Z,91.80
2017-12-01T02:24:32.781Z,74.27
2017-12-01T02:26:58.579Z,80.10
2017-12-01T02:29:24.378Z,71.20
2017-12-01T02:31:50.170Z,64.40
2017-12-01T02:34:15.979Z,66.60
2017-12-01T02:36:41.790Z,71.97
2017-12-01T02:39:08.009Z,71.90
2017-12-01T02:41:33.882Z,67.10
2017-12-01T02:43:59.654Z,58.37
2017-12-01T02:46:25.484Z,68.67
2017-12-01T02:48:51.288Z,54.97
2017-12-01T02:51:17.081Z,68.63
2017-12-01T02:53:42.917Z,62.97
2017-12-01T02:56:08.722Z,61.57
2017-12-01T02:58:34.540Z,58.80
2017-12-01T03:01:00.379Z,67.97
2017-12-01T03:03:26.359Z,70.53
2017-12-01T03:05:52.195Z,65.90
2017-12-01T03:08:18.050Z,61.70
2017-12-01T03:10:43.867Z,70.20
2017-12-01T03:13:09.685Z,70.23
2017-12-01T03:15:35.519Z,66.93
2017-12-01T03:18:01.311Z,61.83
2017-12-01T03:20:27.110Z,58.13
2017-12-01T03:22:52.911Z,55.17
2017-12-01T03:25:18.734Z,68.23
2017-12-01T03:27:44.552Z,62.87
2017-12-01T03:30:10.342Z,63.30
2017-12-01T03:32:36.157Z,52.70
2017-12-01T03:35:02.000Z,52.73
2017-12-01T03:37:27.806Z,52.33
2017-12-01T03:39:53.614Z,61.30
2017-12-01T03:42:19.511Z,48.00
2017-12-01T03:44:45.288Z,47.50
2017-12-01T03:47:11.095Z,53.57
2017-12-01T03:49:36.907Z,51.23
2017-12-01T03:52:02.704Z,50.97
2017-12-01T03:54:28.781Z,53.30
2017-12-01T03:56:54.578Z,49.80
2017-12-01T03:59:20.377Z,48.77
2017-12-01T04:01:46.183Z,46.50
2017-12-01T04:04:11.967Z,53.23
2017-12-01T04:06:37.800Z,46.00
2017-12-01T04:09:03.614Z,46.50
2017-12-01T04:11:29.414Z,53.97
2017-12-01T04:13:55.242Z,43.50
2017-12-01T04:16:21.033Z,49.60
2017-12-01T04:18:46.862Z,51.30
2017-12-01T04:21:12.888Z,45.20
2017-12-01T04:23:38.680Z,39.30
2017-12-01T04:26:04.482Z,42.63
2017-12-01T04:28:30.322Z,56.27
2017-12-01T04:30:56.143Z,48.00
2017-12-01T04:33:21.989Z,44.87
2017-12-01T04:35:47.834Z,50.70
2017-12-01T04:38:13.662Z,26.20
2017-12-01T04:40:39.471Z,43.40
2017-12-01T04:43:05.306Z,48.93
2017-12-01T04:45:31.098Z,41.53
2017-12-01T04:47:56.920Z,41.90
2017-12-01T04:50:22.739Z,40.07
2017-12-01T04:52:48.539Z,40.17
2017-12-01T04:55:14.354Z,41.37
2017-12-01T04:57:40.202Z,39.20
2017-12-01T05:00:06.006Z,38.27
2017-12-01T05:02:31.807Z,43.37
2017-12-01T05:04:57.638Z,38.70
2017-12-01T05:07:23.442Z,37.93
2017-12-01T05:09:49.235Z,35.80
2017-12-01T05:12:15.113Z,39.50
2017-12-01T05:14:40.902Z,34.53
2017-12-01T05:17:06.717Z,39.17
2017-12-01T05:19:32.826Z,41.03
2017-12-01T05:21:58.640Z,49.77
2017-12-01T05:24:24.458Z,39.97
2017-12-01T05:26:50.259Z,38.00
2017-12-01T05:29:16.060Z,26.73
2017-12-01T05:31:41.865Z,41.00
2017-12-01T05:34:07.834Z,38.90
2017-12-01T05:36:33.661Z,46.07
2017-12-01T05:38:59.508Z,43.50
2017-12-01T05:41:25.595Z,33.53
2017-12-01T05:43:51.402Z,33.25
2017-12-01T05:46:17.203Z,36.57
2017-12-01T05:48:43.023Z,34.63
2017-12-01T05:51:08.837Z,33.20
2017-12-01T05:53:34.639Z,42.90
2017-12-01T05:56:00.718Z,39.00
2017-12-01T05:58:26.522Z,38.83
2017-12-01T06:00:52.335Z,35.67
2017-12-01T06:03:18.484Z,37.80
2017-12-01T06:05:44.300Z,36.58
2017-12-01T06:08:10.119Z,33.27
2017-12-01T06:10:36.075Z,31.93
2017-12-01T06:13:01.903Z,39.33
2017-12-01T06:15:27.708Z,31.03
2017-12-01T06:17:54.615Z,31.77
2017-12-01T06:20:20.434Z,41.30
2017-12-01T06:22:46.243Z,40.33
2017-12-01T06:25:12.085Z,40.23
2017-12-01T06:27:37.917Z,36.40
2017-12-01T06:30:03.739Z,36.30
2017-12-01T06:32:29.847Z,36.10
2017-12-01T06:34:55.649Z,35.30
2017-12-01T06:37:21.454Z,41.77
2017-12-01T06:39:47.291Z,34.23
2017-12-01T06:42:13.179Z,39.60
2017-12-01T06:44:38.984Z,40.13
2017-12-01T06:47:04.807Z,42.73
2017-12-01T06:49:30.610Z,39.37
2017-12-01T06:51:56.402Z,33.83
2017-12-01T06:54:22.210Z,36.63
2017-12-01T06:56:48.011Z,40.83
2017-12-01T06:59:13.809Z,36.10
2017-12-01T07:01:39.639Z,41.30
2017-12-01T07:04:05.435Z,38.67
2017-12-01T07:09:04.005Z,39.83
2017-12-01T07:11:30.092Z,47.67
2017-12-01T07:13:55.893Z,37.63
2017-12-01T07:16:21.675Z,36.47
2017-12-01T07:18:47.496Z,35.67
2017-12-01T07:21:13.280Z,36.10
2017-12-01T07:23:39.076Z,41.70
2017-12-01T07:26:17.176Z,34.10
2017-12-01T07:28:42.943Z,39.72
2017-12-01T07:31:08.727Z,44.80
2017-12-01T07:33:34.848Z,39.53
2017-12-01T07:36:00.650Z,39.47
2017-12-01T07:38:26.442Z,46.77
2017-12-01T07:40:53.106Z,37.50
2017-12-01T07:43:18.904Z,42.10
2017-12-01T07:45:44.709Z,41.57
2017-12-01T07:48:10.540Z,47.20
2017-12-01T07:50:36.347Z,33.70
2017-12-01T07:53:02.159Z,37.37
2017-12-01T07:55:28.088Z,34.93
2017-12-01T07:57:53.904Z,41.87
2017-12-01T08:00:19.737Z,44.77
2017-12-01T08:02:45.541Z,41.70
2017-12-01T08:05:11.352Z,35.00
2017-12-01T08:07:37.165Z,37.80
2017-12-01T08:10:03.029Z,35.03
2017-12-01T08:12:28.838Z,46.97
2017-12-01T08:14:55.795Z,39.70
2017-12-01T08:17:28.887Z,39.70
2017-12-01T08:19:54.723Z,61.47
2017-12-01T08:22:32.900Z,40.50
2017-12-01T08:25:11.299Z,43.25
2017-12-01T08:27:37.101Z,35.47
2017-12-01T08:30:02.934Z,42.80
2017-12-01T08:32:28.747Z,39.37
2017-12-01T08:34:54.528Z,37.07
2017-12-01T08:37:20.631Z,40.50
2017-12-01T08:39:46.431Z,37.70
2017-12-01T08:42:12.246Z,44.27
2017-12-01T08:44:38.064Z,46.27
2017-12-01T08:47:03.871Z,38.53
2017-12-01T08:49:29.668Z,44.30
2017-12-01T08:51:56.046Z,39.50
2017-12-01T08:54:22.530Z,41.47
2017-12-01T08:56:48.332Z,41.10
2017-12-01T08:59:14.138Z,39.33
2017-12-01T09:01:40.023Z,38.30
2017-12-01T09:04:06.143Z,29.20
2017-12-01T09:06:32.194Z,35.00
2017-12-01T09:08:58.701Z,31.70
2017-12-01T09:11:24.483Z,41.30
2017-12-01T09:13:50.695Z,38.33
2017-12-01T09:16:17.270Z,38.08
2017-12-01T09:18:44.051Z,159.27
2017-12-01T09:21:10.654Z,34.65
2017-12-01T09:23:36.471Z,49.13
2017-12-01T09:26:03.050Z,31.20
2017-12-01T09:28:28.911Z,32.22
2017-12-01T09:30:54.729Z,33.73
2017-12-01T09:33:20.539Z,43.23
2017-12-01T09:35:46.322Z,39.20
2017-12-01T09:38:12.135Z,35.73
2017-12-01T09:40:37.959Z,33.57
2017-12-01T09:43:03.783Z,37.20
2017-12-01T09:45:29.584Z,39.20
2017-12-01T09:47:55.714Z,33.20
2017-12-01T09:50:21.514Z,35.83
2017-12-01T09:52:47.334Z,37.63
2017-12-01T09:55:13.984Z,32.90
2017-12-01T09:57:39.767Z,36.42
2017-12-01T10:00:05.591Z,31.80
2017-12-01T10:02:31.402Z,36.30
2017-12-01T10:04:57.201Z,42.20
2017-12-01T10:07:22.997Z,28.93
2017-12-01T10:09:48.813Z,36.77
2017-12-01T10:12:14.609Z,32.83
2017-12-01T10:14:40.395Z,40.83
2017-12-01T10:17:06.251Z,35.60
2017-12-01T10:19:32.054Z,49.43
2017-12-01T10:21:57.843Z,29.77
2017-12-01T10:24:23.911Z,34.77
2017-12-01T10:26:49.692Z,38.75
2017-12-01T10:29:15.479Z,33.17
2017-12-01T10:31:41.300Z,33.60
2017-12-01T10:34:07.096Z,35.80
2017-12-01T10:36:32.887Z,41.70
2017-12-01T10:38:58.698Z,35.93
2017-12-01T10:41:24.494Z,34.40
2017-12-01T10:43:50.285Z,45.73
2017-12-01T10:46:16.228Z,35.73
2017-12-01T10:48:42.777Z,48.90
2017-12-01T10:51:08.921Z,36.10
2017-12-01T10:53:34.967Z,35.00
2017-12-01T10:56:02.210Z,45.43
2017-12-01T10:58:28.107Z,34.38
2017-12-01T11:01:01.330Z,80.40
2017-12-01T11:03:27.779Z,36.80
2017-12-01T11:05:54.132Z,33.83
2017-12-01T11:08:20.237Z,31.17
2017-12-01T11:10:46.083Z,42.95
2017-12-01T11:13:11.938Z,35.77
2017-12-01T11:15:37.966Z,33.70
2017-12-01T11:18:04.461Z,36.95
2017-12-01T11:20:30.979Z,35.78
2017-12-01T11:22:57.079Z,41.83
2017-12-01T11:25:22.955Z,50.83
2017-12-01T11:27:48.774Z,41.57
2017-12-01T11:30:14.576Z,42.47
2017-12-01T11:32:40.352Z,38.07
2017-12-01T11:35:06.165Z,51.60
2017-12-01T11:37:31.960Z,34.50
2017-12-01T11:39:58.436Z,34.67
2017-12-01T11:42:24.476Z,34.70
2017-12-01T11:44:50.336Z,34.05
2017-12-01T11:47:16.103Z,31.10
2017-12-01T11:49:41.914Z,32.00
2017-12-01T11:52:08.406Z,34.60
2017-12-01T11:54:34.792Z,37.28
2017-12-01T11:57:00.861Z,30.92
2017-12-01T11:59:26.733Z,51.55
2017-12-01T12:01:52.543Z,30.67
2017-12-01T12:04:19.010Z,32.50
2017-12-01T12:06:45.576Z,32.00
2017-12-01T12:09:11.927Z,32.40
2017-12-01T12:11:38.657Z,35.20
2017-12-01T12:14:04.656Z,38.25
2017-12-01T12:16:30.624Z,32.28
2017-12-01T12:18:56.838Z,32.90
2017-12-01T12:21:22.873Z,33.92
2017-12-01T12:23:49.366Z,33.78
2017-12-01T12:26:15.820Z,37.33
2017-12-01T12:28:41.969Z,34.72
2017-12-01T12:31:07.857Z,33.15
2017-12-01T12:33:33.667Z,34.27
2017-12-01T12:35:59.468Z,30.40
2017-12-01T12:38:25.982Z,30.20
2017-12-01T12:40:52.460Z,32.97
2017-12-01T12:43:18.914Z,34.38
2017-12-01T12:45:45.199Z,26.15
2017-12-01T12:48:11.082Z,26.12
2017-12-01T12:50:36.936Z,27.40
2017-12-01T12:53:02.747Z,25.13
2017-12-01T12:55:29.321Z,30.20
2017-12-01T12:57:55.888Z,72.72
2017-12-01T13:00:22.031Z,49.40
2017-12-01T13:02:47.886Z,26.15
2017-12-01T13:05:13.704Z,26.00
2017-12-01T13:07:39.503Z,26.40
2017-12-01T13:10:05.836Z,30.93
2017-12-01T13:12:31.875Z,21.48
2017-12-01T13:14:57.743Z,24.20
2017-12-01T13:17:23.555Z,30.23
2017-12-01T13:19:49.553Z,25.30
2017-12-01T13:22:15.358Z,21.15
2017-12-01T13:24:42.030Z,16.90
2017-12-01T13:27:07.899Z,22.92
2017-12-01T13:29:33.721Z,22.33
2017-12-01T13:31:59.532Z,19.83
2017-12-01T13:34:26.874Z,27.63
2017-12-01T13:36:53.039Z,17.70
2017-12-01T13:39:18.842Z,33.80
2017-12-01T13:41:45.291Z,23.57
2017-12-01T13:44:11.083Z,24.58
2017-12-01T13:46:37.550Z,30.27
2017-12-01T13:49:03.422Z,20.35
2017-12-01T13:51:30.367Z,18.93
2017-12-01T13:53:56.951Z,19.17
2017-12-01T13:56:23.370Z,19.17
2017-12-01T13:58:49.544Z,17.90
2017-12-01T14:01:16.234Z,20.35
2017-12-01T14:03:42.503Z,19.25
2017-12-01T14:06:09.348Z,25.80
2017-12-01T14:08:35.987Z,20.25
2017-12-01T14:11:01.784Z,20.60
2017-12-01T14:13:27.634Z,21.80
2017-12-01T14:15:53.969Z,20.23
2017-12-01T14:18:20.364Z,23.12
2017-12-01T14:20:46.900Z,21.92
2017-12-01T14:23:13.487Z,22.27
2017-12-01T14:25:39.888Z,25.05
2017-12-01T14:28:05.949Z,24.87
2017-12-01T14:30:31.850Z,30.27
2017-12-01T14:32:57.635Z,26.50
2017-12-01T14:35:23.438Z,25.13
2017-12-01T14:37:49.855Z,25.83
2017-12-01T14:40:16.044Z,26.45
2017-12-01T14:42:42.028Z,28.42
2017-12-01T14:45:08.244Z,26.50
2017-12-01T14:47:34.653Z,25.17
2017-12-01T14:50:00.540Z,28.92
2017-12-01T14:52:27.399Z,25.13
2017-12-01T14:54:53.721Z,24.50
2017-12-01T14:57:19.603Z,22.30
2017-12-01T14:59:45.672Z,24.07
2017-12-01T15:02:11.463Z,31.87
2017-12-01T15:04:37.562Z,21.30
2017-12-01T15:07:04.063Z,30.70
2017-12-01T15:09:30.491Z,28.20
2017-12-01T15:11:57.006Z,24.77
2017-12-01T15:14:23.607Z,30.00
2017-12-01T15:16:50.109Z,26.80
2017-12-01T15:19:16.279Z,26.00
2017-12-01T15:21:42.137Z,27.27
2017-12-01T15:24:07.958Z,27.00
2017-12-01T15:26:33.780Z,30.00
2017-12-01T15:28:59.988Z,24.47
2017-12-01T15:31:26.655Z,28.02
2017-12-01T15:33:53.260Z,27.70
2017-12-01T15:36:19.771Z,24.65
2017-12-01T15:38:46.147Z,24.67
2017-12-01T15:41:12.316Z,30.12
2017-12-01T15:43:38.179Z,30.75
2017-12-01T15:46:03.967Z,29.10
2017-12-01T15:48:29.973Z,33.47
2017-12-01T15:50:56.148Z,31.87
2017-12-01T15:53:22.620Z,31.90
2017-12-01T15:55:49.399Z,32.47
2017-12-01T15:58:15.846Z,32.72
2017-12-01T16:00:42.357Z,34.83
2017-12-01T16:03:08.675Z,30.80
2017-12-01T16:05:34.749Z,32.92
2017-12-01T16:08:00.635Z,32.42
2017-12-01T16:10:26.460Z,30.20
2017-12-01T16:12:52.431Z,32.83
2017-12-01T16:15:18.856Z,31.00
2017-12-01T16:17:45.313Z,31.95
2017-12-01T16:20:11.794Z,31.80
2017-12-01T16:22:38.004Z,29.67
2017-12-01T16:25:03.852Z,28.38
2017-12-01T16:27:29.668Z,29.90
2017-12-01T16:29:55.663Z,38.73
2017-12-01T16:32:22.231Z,84.97
2017-12-01T16:34:48.022Z,111.97
2017-12-01T16:37:14.441Z,47.10
2017-12-01T16:39:40.392Z,32.38
2017-12-01T16:42:06.250Z,24.33
2017-12-01T16:44:32.089Z,24.77
2017-12-01T16:46:57.882Z,27.40
2017-12-01T16:49:23.722Z,29.37
2017-12-01T16:51:49.523Z,32.57
2017-12-01T16:54:15.331Z,27.40
2017-12-01T16:56:41.363Z,29.93
2017-12-01T16:59:07.192Z,31.00
2017-12-01T17:01:33.010Z,34.07
2017-12-01T17:03:58.855Z,28.50
2017-12-01T17:06:24.761Z,25.13
2017-12-01T17:08:50.591Z,30.03
2017-12-01T17:11:16.428Z,35.20
2017-12-01T17:13:42.247Z,29.80
2017-12-01T17:16:08.038Z,82.50
2017-12-01T17:18:33.866Z,79.53
2017-12-01T17:20:59.686Z,41.97
2017-12-01T17:23:25.494Z,33.30
2017-12-01T17:25:51.602Z,50.63
2017-12-01T17:28:17.410Z,59.13
2017-12-01T17:30:43.202Z,40.13
2017-12-01T17:33:09.006Z,29.27
2017-12-01T17:35:35.086Z,42.63
2017-12-01T17:38:00.899Z,64.07
2017-12-01T17:40:26.702Z,78.07
2017-12-01T17:42:52.502Z,64.43
2017-12-01T17:45:18.337Z,55.33
2017-12-01T17:47:44.133Z,55.73
2017-12-01T17:50:09.955Z,45.90
2017-12-01T17:52:35.774Z,49.43
2017-12-01T17:55:01.606Z,52.83
2017-12-01T17:57:27.426Z,54.53
2017-12-01T17:59:53.816Z,53.40
2017-12-01T18:02:19.602Z,52.50
2017-12-01T18:04:45.718Z,62.07
2017-12-01T18:07:11.507Z,64.53
2017-12-01T18:09:37.314Z,52.80
2017-12-01T18:12:03.432Z,51.27
2017-12-01T18:14:29.214Z,43.75
2017-12-01T18:16:55.003Z,43.47
2017-12-01T18:19:20.814Z,48.87
2017-12-01T18:21:46.627Z,45.63
2017-12-01T18:24:12.418Z,46.10
2017-12-01T18:26:38.285Z,60.87
2017-12-01T18:29:04.078Z,48.67
2017-12-01T18:31:29.862Z,47.17
2017-12-01T18:33:55.690Z,42.03
2017-12-01T18:36:21.509Z,39.73
2017-12-01T18:38:47.335Z,53.80
2017-12-01T18:41:13.154Z,41.87
2017-12-01T18:43:38.951Z,44.10
2017-12-01T18:46:04.751Z,44.07
2017-12-01T18:48:30.560Z,41.27
2017-12-01T18:50:56.370Z,44.33
2017-12-01T18:53:22.186Z,51.70
2017-12-01T18:55:48.029Z,60.80
2017-12-01T18:58:13.831Z,47.07
2017-12-01T19:00:39.683Z,50.27
2017-12-01T19:03:05.591Z,46.70
2017-12-01T19:05:31.394Z,41.40
2017-12-01T19:07:57.231Z,47.00
2017-12-01T19:10:23.215Z,51.70
2017-12-01T19:12:49.036Z,44.10
2017-12-01T19:15:14.841Z,45.03
2017-12-01T19:17:40.712Z,46.43
2017-12-01T19:20:06.530Z,42.47
2017-12-01T19:22:32.346Z,88.77
2017-12-01T19:24:58.170Z,52.57
2017-12-01T19:27:24.004Z,47.50
2017-12-01T19:29:49.909Z,42.90
2017-12-01T19:32:15.802Z,53.77
2017-12-01T19:34:41.666Z,51.73
2017-12-01T19:37:07.556Z,42.97
2017-12-01T19:39:33.417Z,51.33
2017-12-01T19:41:59.250Z,46.10
2017-12-01T19:44:25.137Z,38.90
2017-12-01T19:46:50.935Z,39.43
2017-12-01T19:49:16.792Z,38.77
2017-12-01T19:51:42.694Z,53.67
2017-12-01T19:54:08.519Z,55.23
2017-12-01T19:56:34.370Z,45.50
2017-12-01T19:59:00.252Z,54.23
2017-12-01T20:01:26.099Z,55.23
2017-12-01T20:03:51.960Z,80.77
2017-12-01T20:06:17.778Z,70.13
2017-12-01T20:08:43.575Z,38.93
2017-12-01T20:11:09.793Z,90.23
2017-12-01T20:13:35.654Z,195.18
2017-12-01T20:16:01.519Z,102.70
2017-12-01T20:18:27.401Z,150.83
2017-12-01T20:20:53.273Z,167.17
2017-12-01T20:23:19.142Z,239.23
2017-12-01T20:25:45.028Z,105.83
2017-12-01T20:28:10.917Z,316.63
2017-12-01T20:30:36.800Z,154.90
2017-12-01T20:33:02.694Z,105.47
2017-12-01T20:35:28.580Z,72.50
2017-12-01T20:37:54.654Z,113.63
2017-12-01T20:40:20.539Z,118.75
2017-12-01T20:42:46.387Z,163.13
2017-12-01T20:45:12.255Z,208.37
2017-12-01T20:47:38.136Z,401.73
2017-12-01T20:50:03.971Z,87.03
2017-12-01T20:52:29.831Z,125.33
2017-12-01T20:54:55.650Z,92.63
2017-12-01T20:57:21.495Z,130.47
2017-12-01T20:59:47.399Z,55.83
2017-12-01T21:02:13.230Z,79.60
2017-12-01T21:04:39.046Z,59.50
2017-12-01T21:07:04.922Z,164.70
2017-12-01T21:09:30.736Z,71.63
2017-12-01T21:11:56.564Z,68.50
2017-12-01T21:14:22.460Z,55.67
2017-12-01T21:16:48.279Z,91.97
2017-12-01T21:19:14.082Z,67.77
2017-12-01T21:21:40.197Z,73.73
2017-12-01T21:24:06.021Z,62.95
2017-12-01T21:26:31.876Z,60.70
2017-12-01T21:28:57.703Z,49.87
2017-12-01T21:31:23.502Z,54.10
2017-12-01T21:33:49.310Z,68.27
2017-12-01T21:36:15.139Z,76.80
2017-12-01T21:38:40.944Z,85.67
2017-12-01T21:41:06.739Z,54.30
2017-12-01T21:43:32.570Z,56.63
2017-12-01T21:45:58.391Z,75.83
2017-12-01T21:48:24.201Z,58.87
2017-12-01T21:50:50.050Z,65.00
2017-12-01T21:53:15.830Z,73.03
2017-12-01T21:55:41.619Z,53.63
2017-12-01T21:58:07.426Z,104.33
2017-12-01T22:00:33.225Z,65.67
2017-12-01T22:02:59.022Z,63.13
2017-12-01T22:05:24.826Z,52.87
2017-12-01T22:07:50.623Z,63.93
2017-12-01T22:10:16.415Z,63.57
2017-12-01T22:12:42.310Z,52.83
2017-12-01T22:15:08.111Z,54.93
2017-12-01T22:17:33.914Z,58.07
2017-12-01T22:19:59.940Z,53.63
2017-12-01T22:22:25.743Z,56.17
2017-12-01T22:24:51.540Z,54.37
2017-12-01T22:27:17.411Z,68.73
2017-12-01T22:29:43.206Z,52.43
2017-12-01T22:32:09.017Z,56.20
2017-12-01T22:34:34.822Z,84.63
2017-12-01T22:37:00.594Z,49.77
2017-12-01T22:39:26.399Z,49.30
2017-12-01T22:41:52.492Z,84.87
2017-12-01T22:44:18.273Z,52.00
2017-12-01T22:46:44.078Z,51.80
2017-12-01T22:49:10.134Z,48.77
2017-12-01T22:51:35.923Z,41.95
2017-12-01T22:54:01.712Z,35.17
2017-12-01T22:56:27.904Z,49.70
2017-12-01T22:58:53.677Z,55.45
2017-12-01T23:01:19.479Z,54.53
2017-12-01T23:03:45.564Z,40.23
2017-12-01T23:06:11.397Z,41.47
2017-12-01T23:08:37.151Z,43.00
2017-12-01T23:11:02.991Z,50.30
2017-12-01T23:13:29.049Z,56.57
2017-12-01T23:15:54.846Z,47.78
2017-12-01T23:18:20.663Z,52.83
2017-12-01T23:20:46.457Z,50.07
2017-12-01T23:23:12.245Z,47.97
2017-12-01T23:25:38.034Z,52.87
2017-12-01T23:28:03.830Z,50.07
2017-12-01T23:30:29.881Z,50.13
2017-12-01T23:32:55.646Z,36.33
2017-12-01T23:35:21.433Z,52.73
2017-12-01T23:37:47.224Z,42.47
2017-12-01T23:40:13.007Z,41.87
2017-12-01T23:42:38.800Z,25.63
2017-12-01T23:45:04.637Z,38.90
2017-12-01T23:47:30.434Z,48.07
2017-12-01T23:49:56.227Z,47.50
2017-12-01T23:52:22.031Z,49.63
2017-12-01T23:54:47.854Z,45.87
2017-12-01T23:57:13.826Z,54.50
2017-12-01T23:59:39.638Z,46.13
